Time;durP1;ratioP1;P1;durP2;ratioP2;P2;SDS_P1;SDS_P2;PMS_P1;PMS_P2;Temp;Humidity;BMP_temperature;BMP_pressure;BME280_temperature;BME280_humidity;BME280_pressure;Samples;Min_cycle;Max_cycle;Signal;HPM_P1;HPM_P2
2021/07/28 00:02:08;;;;;;;15.05;10.85;;;;;;;21.60;96.32;100407.91;5048104;28;20033;-76
2021/07/28 00:04:35;;;;;;;15.75;10.98;;;;;;;21.56;96.21;100406.03;5054341;28;20029;-76
2021/07/28 00:07:00;;;;;;;18.17;10.52;;;;;;;21.66;96.31;100408.91;5035887;28;20048;-75
2021/07/28 00:09:26;;;;;;;14.65;10.90;;;;;;;21.72;95.57;100407.19;5051340;28;20037;-76
2021/07/28 00:11:51;;;;;;;17.08;10.73;;;;;;;21.45;96.55;100408.31;5042968;28;20037;-74
2021/07/28 00:14:18;;;;;;;15.63;10.70;;;;;;;21.50;96.30;100415.25;5046098;28;20021;-76
2021/07/28 00:16:43;;;;;;;16.33;11.30;;;;;;;21.29;97.28;100413.84;5049723;28;20396;-75
2021/07/28 00:19:17;;;;;;;15.32;10.57;;;;;;;21.42;96.92;100406.44;5051025;28;20041;-76
2021/07/28 00:24:31;;;;;;;17.73;11.63;;;;;;;21.31;97.22;100408.69;5044946;28;20077;-75
2021/07/28 00:26:58;;;;;;;14.38;11.07;;;;;;;21.47;96.82;100413.34;5047812;28;20036;-75
2021/07/28 00:29:25;;;;;;;19.92;11.55;;;;;;;21.21;97.67;100409.00;5015247;28;20063;-75
2021/07/28 00:31:50;;;;;;;14.63;10.40;;;;;;;21.30;97.38;100400.91;5047472;28;20516;-75
2021/07/28 00:34:16;;;;;;;13.48;10.02;;;;;;;21.32;97.37;100401.25;5017867;28;20049;-75
2021/07/28 00:36:41;;;;;;;15.85;10.63;;;;;;;21.37;96.71;100396.00;5025574;28;20029;-75
2021/07/28 00:39:06;;;;;;;14.85;10.57;;;;;;;21.26;96.72;100398.28;5045228;28;20070;-75
2021/07/28 00:41:32;;;;;;;12.45;9.90;;;;;;;21.18;96.31;100398.91;5032597;28;20051;-75
2021/07/28 00:43:57;;;;;;;14.60;10.07;;;;;;;21.16;96.43;100388.38;5038281;28;20489;-75
2021/07/28 00:46:23;;;;;;;16.60;10.07;;;;;;;21.40;95.58;100388.91;5046123;28;20397;-76
2021/07/28 00:48:48;;;;;;;14.10;9.88;;;;;;;21.38;96.47;100392.06;5038369;28;20432;-75
2021/07/28 00:51:14;;;;;;;14.85;9.75;;;;;;;21.38;95.48;100394.81;5032511;28;20459;-76
2021/07/28 00:53:39;;;;;;;15.73;10.63;;;;;;;21.16;96.42;100391.13;5043160;28;20029;-76
2021/07/28 00:56:05;;;;;;;17.13;10.30;;;;;;;21.24;96.70;100391.69;5044256;28;20032;-76
2021/07/28 00:58:31;;;;;;;15.68;10.35;;;;;;;21.23;96.68;100387.44;5049983;28;20061;-76
2021/07/28 01:00:56;;;;;;;15.48;10.63;;;;;;;21.13;96.53;100374.78;5007515;28;20509;-75
2021/07/28 01:03:22;;;;;;;16.10;10.77;;;;;;;20.97;96.89;100383.00;5044206;28;20032;-76
2021/07/28 01:05:47;;;;;;;13.05;9.80;;;;;;;21.13;97.06;100383.00;5033025;28;20505;-75
2021/07/28 01:08:13;;;;;;;13.02;9.80;;;;;;;21.12;97.05;100379.47;5046751;28;20040;-76
2021/07/28 01:10:39;;;;;;;13.30;9.68;;;;;;;21.16;96.48;100371.16;5048991;28;20025;-76
2021/07/28 01:13:07;;;;;;;11.55;9.15;;;;;;;21.28;95.65;100371.22;5050076;28;20037;-76
2021/07/28 01:15:34;;;;;;;14.80;9.90;;;;;;;21.30;95.64;100373.53;5045502;28;20381;-76
2021/07/28 01:18:01;;;;;;;12.40;9.68;;;;;;;21.39;95.39;100365.41;5048156;28;20547;-76
2021/07/28 01:20:40;;;;;;;15.90;9.95;;;;;;;21.22;95.65;100361.22;5047431;28;20029;-76
2021/07/28 01:23:11;;;;;;;14.75;10.68;;;;;;;20.98;96.30;100354.44;5047355;28;20638;-76
2021/07/28 01:25:37;;;;;;;14.77;9.80;;;;;;;21.08;96.87;100351.41;5032247;28;20037;-76
2021/07/28 01:28:03;;;;;;;13.63;9.82;;;;;;;21.09;96.87;100349.47;5048469;28;20508;-76
2021/07/28 01:30:30;;;;;;;15.73;10.13;;;;;;;21.08;97.01;100345.94;5047686;28;20033;-76
2021/07/28 01:32:57;;;;;;;12.93;9.25;;;;;;;21.05;96.47;100346.81;5038090;28;20041;-74
2021/07/28 01:35:24;;;;;;;13.43;9.63;;;;;;;21.10;96.56;100343.53;5018694;28;20052;-75
2021/07/28 01:37:49;;;;;;;13.73;9.43;;;;;;;20.97;97.08;100334.50;5025617;28;20497;-76
2021/07/28 01:40:15;;;;;;;11.75;8.95;;;;;;;20.95;97.89;100331.41;5048946;28;20029;-76
2021/07/28 01:42:42;;;;;;;13.10;9.30;;;;;;;21.04;97.11;100341.78;5042408;28;20029;-76
2021/07/28 01:45:09;;;;;;;12.77;9.38;;;;;;;20.77;97.84;100333.09;5040625;28;20040;-76
2021/07/28 01:47:34;;;;;;;12.23;9.35;;;;;;;20.92;97.86;100337.00;5047903;28;20033;-76
2021/07/28 01:50:00;;;;;;;11.20;8.63;;;;;;;20.99;97.87;100337.56;5042083;28;20095;-75
2021/07/28 01:52:25;;;;;;;12.55;8.85;;;;;;;20.88;97.58;100331.63;5026209;28;20562;-75
2021/07/28 01:54:50;;;;;;;12.50;8.82;;;;;;;20.91;97.58;100327.22;5019874;28;20037;-75
2021/07/28 01:57:16;;;;;;;12.50;8.70;;;;;;;21.05;97.97;100340.56;5031954;28;20384;-75
2021/07/28 01:59:41;;;;;;;12.82;9.30;;;;;;;21.03;97.48;100332.78;5045613;28;20061;-75
2021/07/28 02:02:07;;;;;;;13.25;9.38;;;;;;;21.02;97.74;100342.19;5040701;28;20044;-75
2021/07/28 02:04:32;;;;;;;12.52;9.35;;;;;;;20.76;98.23;100335.06;5042176;28;20037;-75
2021/07/28 02:06:58;;;;;;;12.80;9.15;;;;;;;20.84;97.85;100339.16;5047543;28;20068;-75
2021/07/28 02:09:23;;;;;;;13.82;9.50;;;;;;;20.86;97.97;100342.22;5041120;28;20029;-75
2021/07/28 02:11:49;;;;;;;13.40;9.45;;;;;;;20.84;97.69;100341.13;5037004;28;20072;-75
2021/07/28 02:14:14;;;;;;;15.63;9.98;;;;;;;20.91;97.96;100347.16;5045288;28;20159;-76
2021/07/28 02:16:39;;;;;;;12.23;8.73;;;;;;;20.67;98.79;100340.41;5041844;28;20021;-76
2021/07/28 02:19:07;;;;;;;14.90;9.10;;;;;;;20.69;99.05;100341.47;5030341;28;20029;-75
2021/07/28 02:21:33;;;;;;;12.75;8.68;;;;;;;20.67;98.50;100332.19;5034558;28;20493;-76
2021/07/28 02:23:59;;;;;;;14.43;9.00;;;;;;;20.71;98.37;100332.88;5042139;28;20040;-76
2021/07/28 02:26:25;;;;;;;11.38;8.70;;;;;;;20.63;98.12;100337.72;5025919;28;20044;-75
2021/07/28 02:28:52;;;;;;;11.90;8.20;;;;;;;20.71;98.38;100332.88;5045203;28;20040;-75
2021/07/28 02:31:18;;;;;;;14.48;8.85;;;;;;;20.61;98.80;100331.91;5031062;28;20033;-75
2021/07/28 02:33:43;;;;;;;15.23;9.32;;;;;;;20.41;99.55;100330.50;5028692;28;20389;-75
2021/07/28 02:36:09;;;;;;;14.05;8.75;;;;;;;20.45;99.33;100328.44;5033355;28;20111;-75
2021/07/28 02:38:36;;;;;;;12.07;8.65;;;;;;;20.60;99.23;100324.13;5051653;28;20036;-74
2021/07/28 02:41:01;;;;;;;12.20;8.63;;;;;;;20.54;98.85;100314.91;5045702;28;20036;-75
2021/07/28 02:43:27;;;;;;;12.23;8.98;;;;;;;20.57;99.16;100319.53;5043710;28;20068;-75
2021/07/28 02:45:52;;;;;;;12.05;8.45;;;;;;;20.47;99.55;100329.56;5051114;28;20043;-75
2021/07/28 02:48:18;;;;;;;12.90;8.88;;;;;;;20.38;99.62;100321.16;5035209;28;20044;-75
2021/07/28 02:50:43;;;;;;;12.90;8.57;;;;;;;20.36;100.00;100325.56;5044517;28;20068;-75
2021/07/28 02:53:09;;;;;;;12.43;8.70;;;;;;;20.41;99.96;100323.06;5029672;28;20045;-75
2021/07/28 02:55:34;;;;;;;13.43;8.30;;;;;;;20.37;99.87;100316.13;5044297;28;20071;-75
2021/07/28 02:58:00;;;;;;;12.75;8.30;;;;;;;;;;5033286;28;20111;-75
2021/07/28 03:00:25;;;;;;;13.02;8.43;;;;;;;20.53;99.47;100316.13;5047389;28;20052;-75
2021/07/28 03:02:51;;;;;;;12.30;8.68;;;;;;;20.63;98.98;100315.84;5039302;28;20493;-75
2021/07/28 03:05:16;;;;;;;14.13;8.82;;;;;;;20.59;99.34;100320.66;5047941;28;20024;-75
2021/07/28 03:07:42;;;;;;;13.80;9.00;;;;;;;20.67;98.74;100316.50;5048549;28;20047;-75
2021/07/28 03:10:08;;;;;;;10.55;7.93;;;;;;;20.66;98.19;100320.47;5043342;28;20026;-75
2021/07/28 03:12:33;;;;;;;12.18;7.22;;;;;;;20.70;98.48;100317.63;5034140;28;20024;-75
2021/07/28 03:14:59;;;;;;;12.18;8.40;;;;;;;20.74;98.15;100323.00;5032921;28;20045;-75
2021/07/28 03:17:24;;;;;;;11.10;8.35;;;;;;;20.40;99.06;100312.56;5042521;28;20030;-75
2021/07/28 03:19:50;;;;;;;15.52;8.73;;;;;;;20.24;100.00;100326.25;5023454;28;20555;-76
2021/07/28 03:22:15;;;;;;;11.38;7.88;;;;;;;20.43;99.60;100314.44;5031185;28;20139;-76
2021/07/28 03:24:41;;;;;;;10.90;7.97;;;;;;;;;;5037608;28;20037;-76
2021/07/28 03:27:06;;;;;;;13.38;7.95;;;;;;;20.57;99.16;100322.28;5046894;28;20021;-76
2021/07/28 03:29:33;;;;;;;12.40;8.98;;;;;;;20.40;99.46;100324.25;5024520;28;20629;-76
2021/07/28 03:31:58;;;;;;;13.55;8.25;;;;;;;20.49;99.15;100320.91;5038511;28;20127;-76
2021/07/28 03:34:24;;;;;;;10.68;8.20;;;;;;;20.54;98.21;100323.91;5028337;28;20147;-76
2021/07/28 03:36:51;;;;;;;15.27;9.00;;;;;;;20.22;99.83;100331.38;5038694;28;20025;-75
2021/07/28 03:39:16;;;;;;;12.75;8.65;;;;;;;20.19;100.00;100319.31;5038901;28;20033;-76
2021/07/28 03:41:42;;;;;;;11.70;8.48;;;;;;;20.29;100.00;100322.97;5032101;28;20543;-76
2021/07/28 03:44:08;;;;;;;14.93;8.80;;;;;;;20.19;100.00;100318.56;5041574;28;20409;-76
2021/07/28 03:46:33;;;;;;;13.80;8.00;;;;;;;20.30;100.00;100322.56;5047208;28;20033;-76
2021/07/28 03:48:59;;;;;;;11.10;8.23;;;;;;;20.26;100.00;100319.16;5047487;28;20037;-76
2021/07/28 03:51:24;;;;;;;11.68;8.40;;;;;;;20.40;100.00;100326.25;5050779;28;20025;-76
2021/07/28 03:53:50;;;;;;;13.20;8.38;;;;;;;20.38;99.94;100328.63;5048651;28;20033;-75
2021/07/28 03:56:17;;;;;;;13.13;8.27;;;;;;;20.21;100.00;100329.84;5051488;28;20040;-76
2021/07/28 03:58:43;;;;;;;11.75;8.25;;;;;;;20.23;100.00;100335.63;5042600;28;20577;-76
2021/07/28 04:01:08;;;;;;;11.77;8.02;;;;;;;20.16;100.00;100335.78;5045817;28;20485;-75
2021/07/28 04:03:34;;;;;;;11.40;7.70;;;;;;;20.14;100.00;100338.16;5037056;28;20077;-74
2021/07/28 04:06:02;;;;;;;13.30;7.82;;;;;;;20.13;100.00;100326.47;5050048;28;20032;-75
2021/07/28 04:08:28;;;;;;;12.27;7.97;;;;;;;20.18;100.00;100322.44;5029909;28;20040;-75
2021/07/28 04:10:53;;;;;;;11.73;7.97;;;;;;;20.21;100.00;100332.59;5033214;28;20029;-75
2021/07/28 04:13:19;;;;;;;11.60;7.40;;;;;;;20.25;99.90;100325.81;5047854;28;20045;-75
2021/07/28 04:15:44;;;;;;;13.38;7.63;;;;;;;20.23;99.99;100332.88;5026693;28;20413;-75
2021/07/28 04:18:09;;;;;;;10.93;7.82;;;;;;;20.27;99.00;100325.38;5041316;28;20033;-74
2021/07/28 04:20:35;;;;;;;14.82;7.63;;;;;;;19.92;100.00;100326.97;5034668;28;20061;-75
2021/07/28 04:23:00;;;;;;;12.02;7.43;;;;;;;19.72;100.00;100329.75;5032888;28;20048;-75
2021/07/28 04:25:26;;;;;;;9.88;7.40;;;;;;;19.83;100.00;100326.00;5035343;28;20037;-75
2021/07/28 04:27:51;;;;;;;12.30;7.60;;;;;;;19.94;100.00;100329.28;5029587;28;21028;-75
2021/07/28 04:30:17;;;;;;;14.23;7.13;;;;;;;20.09;99.58;100330.50;5030582;28;20036;-74
2021/07/28 04:32:42;;;;;;;9.02;7.07;;;;;;;20.00;100.00;100331.06;5026088;28;20060;-75
2021/07/28 04:35:08;;;;;;;11.13;7.47;;;;;;;20.14;99.45;100324.50;5027885;28;22409;-75
2021/07/28 04:37:34;;;;;;;10.48;6.93;;;;;;;20.27;98.14;100322.63;5026704;28;20117;-75
2021/07/28 04:40:01;;;;;;;10.82;7.50;;;;;;;20.15;98.70;100329.53;5030904;28;20076;-75
2021/07/28 04:42:28;;;;;;;10.52;6.85;;;;;;;20.14;98.75;100327.22;5025706;28;20402;-75
2021/07/28 04:44:54;;;;;;;12.88;7.13;;;;;;;20.21;98.85;100327.84;5025383;28;20041;-75
2021/07/28 04:47:19;;;;;;;9.15;7.03;;;;;;;20.19;98.60;100321.28;5039315;28;20409;-75
2021/07/28 04:49:45;;;;;;;13.27;6.85;;;;;;;20.13;99.32;100322.97;5036917;28;20401;-75
2021/07/28 04:52:11;;;;;;;12.88;6.93;;;;;;;20.26;98.95;100334.78;5033957;28;20037;-74
2021/07/28 04:54:37;;;;;;;12.45;7.22;;;;;;;20.18;98.31;100331.47;5017206;28;20044;-75
2021/07/28 04:57:02;;;;;;;10.82;6.63;;;;;;;20.09;98.83;100328.50;5038921;28;20036;-74
2021/07/28 04:59:28;;;;;;;11.50;6.80;;;;;;;20.24;98.35;100329.75;5046050;28;20521;-74
2021/07/28 05:01:53;;;;;;;12.93;7.18;;;;;;;20.30;97.99;100339.00;5037951;28;20486;-74
2021/07/28 05:04:19;;;;;;;14.23;7.32;;;;;;;20.25;98.68;100330.50;5042752;28;20036;-75
2021/07/28 05:06:44;;;;;;;10.27;7.18;;;;;;;20.11;98.87;100317.91;5029642;28;20521;-74
2021/07/28 05:09:12;;;;;;;10.30;6.60;;;;;;;20.23;98.46;100322.72;5044748;28;20152;-75
2021/07/28 05:11:37;;;;;;;10.38;6.53;;;;;;;20.25;98.24;100327.75;5043457;28;20124;-75
2021/07/28 05:14:03;;;;;;;10.90;6.93;;;;;;;20.07;99.37;100322.72;5043709;28;20464;-75
2021/07/28 05:16:28;;;;;;;11.50;6.63;;;;;;;20.11;99.37;100322.63;5049020;28;20025;-74
2021/07/28 05:18:54;;;;;;;11.18;7.07;;;;;;;20.12;99.12;100319.47;5023105;28;20051;-75
2021/07/28 05:21:19;;;;;;;12.23;7.03;;;;;;;20.02;99.63;100325.16;5029786;28;20040;-75
2021/07/28 05:23:45;;;;;;;12.02;7.43;;;;;;;20.02;100.00;100323.22;5041519;28;20040;-74
2021/07/28 05:26:11;;;;;;;10.35;7.03;;;;;;;20.21;99.60;100316.91;5044863;28;20779;-76
2021/07/28 05:28:37;;;;;;;10.57;7.00;;;;;;;20.42;97.60;100326.59;5043246;28;20037;-75
2021/07/28 05:31:03;;;;;;;10.48;6.75;;;;;;;21.06;95.62;100322.94;5048732;28;20021;-75
2021/07/28 05:33:28;;;;;;;10.63;6.78;;;;;;;21.72;91.98;100322.19;5043411;28;20444;-75
2021/07/28 05:35:54;;;;;;;9.95;6.47;;;;;;;22.31;87.89;100317.53;5044474;28;20033;-74
2021/07/28 05:38:19;;;;;;;11.80;6.72;;;;;;;22.55;85.50;100314.41;5028519;28;20041;-75
2021/07/28 05:40:45;;;;;;;10.60;6.70;;;;;;;22.89;84.38;100312.41;5049183;28;20039;-75
2021/07/28 05:43:10;;;;;;;8.38;6.05;;;;;;;23.05;83.14;100314.22;5045907;28;20031;-74
2021/07/28 05:45:36;;;;;;;10.93;6.28;;;;;;;22.96;82.50;100311.38;5034920;28;20489;-74
2021/07/28 05:48:01;;;;;;;9.70;6.15;;;;;;;23.36;81.46;100314.28;5033384;28;20469;-75
2021/07/28 05:50:27;;;;;;;11.63;6.22;;;;;;;23.47;79.32;100304.41;5036475;28;20029;-75
2021/07/28 05:52:52;;;;;;;9.88;6.30;;;;;;;23.64;78.67;100302.94;5011561;28;20485;-74
2021/07/28 05:55:18;;;;;;;10.90;6.10;;;;;;;23.43;79.31;100308.50;5030380;28;20074;-75
2021/07/28 05:57:45;;;;;;;14.35;6.70;;;;;;;22.97;80.25;100310.97;5038376;28;20048;-75
2021/07/28 06:00:11;;;;;;;10.63;6.32;;;;;;;22.83;82.36;100318.91;5042154;28;20092;-75
2021/07/28 06:02:36;;;;;;;10.13;6.03;;;;;;;22.50;83.37;100318.47;5046579;28;20036;-75
2021/07/28 06:05:02;;;;;;;9.73;6.25;;;;;;;22.25;85.86;100313.03;5048395;28;20037;-75
2021/07/28 06:07:27;;;;;;;12.65;6.20;;;;;;;22.57;83.89;100321.00;5042855;28;20464;-75
2021/07/28 06:09:53;;;;;;;11.65;6.57;;;;;;;21.96;85.15;100320.66;5043002;28;20029;-74
2021/07/28 06:12:19;;;;;;;9.95;6.65;;;;;;;21.94;85.90;100320.31;5050562;28;20135;-75
2021/07/28 06:14:45;;;;;;;9.80;6.50;;;;;;;22.04;86.19;100327.44;5045950;28;20493;-74
2021/07/28 06:17:11;;;;;;;12.38;6.25;;;;;;;22.05;86.13;100324.25;5045081;28;20044;-75
2021/07/28 06:19:37;;;;;;;11.38;6.65;;;;;;;22.17;86.61;100317.22;5026921;28;20033;-75
2021/07/28 06:22:03;;;;;;;12.32;6.80;;;;;;;22.53;85.02;100316.81;5014969;28;20409;-75
2021/07/28 06:24:28;;;;;;;9.43;6.60;;;;;;;23.10;83.83;100319.13;5055184;22;20045;-76
2021/07/28 06:26:54;;;;;;;10.13;6.10;;;;;;;23.56;82.16;100328.41;5022107;28;20033;-76
2021/07/28 06:29:21;;;;;;;9.68;5.90;;;;;;;23.80;79.29;100327.47;5030143;28;20033;-75
2021/07/28 06:31:47;;;;;;;13.15;6.43;;;;;;;23.44;79.93;100332.03;5007642;28;20030;-75
2021/07/28 06:34:13;;;;;;;8.85;6.13;;;;;;;23.54;79.98;100334.38;5027772;28;20087;-76
2021/07/28 06:36:38;;;;;;;8.43;5.97;;;;;;;23.85;79.37;100321.38;5026170;28;20025;-76
2021/07/28 06:39:04;;;;;;;10.32;6.60;;;;;;;23.94;78.10;100329.66;5005913;28;20257;-76
2021/07/28 06:41:29;;;;;;;8.25;6.05;;;;;;;23.88;78.69;100323.22;5031145;28;20033;-75
2021/07/28 06:43:55;;;;;;;12.82;6.35;;;;;;;24.12;77.76;100324.22;5026980;28;20037;-76
2021/07/28 06:46:20;;;;;;;14.85;7.38;;;;;;;23.95;77.52;100319.41;5007338;28;20067;-76
2021/07/28 06:48:45;;;;;;;11.10;6.50;;;;;;;24.12;77.07;100337.22;4991404;28;20037;-75
2021/07/28 06:51:11;;;;;;;10.82;6.45;;;;;;;24.23;76.33;100334.81;5022533;28;20033;-76
2021/07/28 06:53:36;;;;;;;8.93;6.07;;;;;;;24.34;76.48;100331.63;4995062;28;20030;-76
2021/07/28 06:56:02;;;;;;;10.55;6.28;;;;;;;24.49;75.44;100338.06;5015027;28;20033;-76
2021/07/28 06:58:27;;;;;;;11.93;6.97;;;;;;;24.20;76.09;100330.22;5022396;28;20039;-76
2021/07/28 07:00:56;;;;;;;10.65;6.40;;;;;;;23.95;76.43;100328.44;5029152;28;20025;-76
2021/07/28 07:03:22;;;;;;;10.43;6.28;;;;;;;23.98;77.61;100327.53;4998542;28;20033;-76
2021/07/28 07:05:48;;;;;;;11.90;6.40;;;;;;;24.13;77.36;100328.53;5014034;28;20485;-76
2021/07/28 07:08:15;;;;;;;9.95;5.90;;;;;;;24.41;75.47;100323.81;5020116;28;20044;-76
2021/07/28 07:10:40;;;;;;;12.32;6.10;;;;;;;24.27;75.03;100329.16;5032520;28;20109;-75
2021/07/28 07:13:06;;;;;;;9.45;5.55;;;;;;;24.46;75.41;100330.72;5024459;28;20530;-76
2021/07/28 07:15:31;;;;;;;10.60;6.15;;;;;;;24.43;74.23;100329.66;5018641;28;20117;-75
2021/07/28 07:17:57;;;;;;;6.85;5.18;;;;;;;24.74;74.44;100324.78;5019042;28;20111;-76
2021/07/28 07:20:22;;;;;;;8.90;6.18;;;;;;;24.82;73.13;100323.28;5012775;28;20026;-76
2021/07/28 07:22:48;;;;;;;9.52;5.85;;;;;;;24.64;74.58;100316.97;5020787;28;20034;-76
2021/07/28 07:25:13;;;;;;;7.95;5.50;;;;;;;24.63;74.92;100326.44;5015450;28;20021;-75
2021/07/28 07:27:40;;;;;;;9.05;5.85;;;;;;;24.90;74.47;100318.22;5018522;28;20544;-75
2021/07/28 07:30:08;;;;;;;11.20;5.68;;;;;;;24.76;72.50;100319.59;5018260;28;20037;-76
2021/07/28 07:32:33;;;;;;;11.13;5.63;;;;;;;24.96;72.46;100313.63;5010772;28;20077;-75
2021/07/28 07:34:59;;;;;;;10.43;5.45;;;;;;;25.11;72.71;100300.72;4980704;28;20581;-76
2021/07/28 07:37:25;;;;;;;8.65;5.53;;;;;;;25.15;70.96;100319.84;5009276;28;20120;-76
2021/07/28 07:39:51;;;;;;;8.93;5.50;;;;;;;25.03;69.66;100322.31;5012034;28;20616;-76
2021/07/28 07:42:16;;;;;;;8.48;5.18;;;;;;;25.04;72.52;100312.06;5024366;28;20044;-76
2021/07/28 07:44:45;;;;;;;10.77;5.15;;;;;;;25.25;71.31;100321.38;5007559;28;20079;-76
2021/07/28 07:47:12;;;;;;;7.43;5.28;;;;;;;25.64;70.39;100323.91;5009057;28;20041;-76
2021/07/28 07:49:37;;;;;;;7.57;5.13;;;;;;;25.13;69.13;100320.31;5026457;28;20037;-76
2021/07/28 07:52:03;;;;;;;11.60;5.18;;;;;;;24.91;69.91;100312.22;5012480;28;20055;-76
2021/07/28 07:54:29;;;;;;;7.18;4.53;;;;;;;24.96;69.88;100328.16;5027243;28;20061;-76
2021/07/28 07:56:54;;;;;;;8.02;4.97;;;;;;;25.04;70.21;100317.59;5012668;28;20096;-76
2021/07/28 07:59:20;;;;;;;6.50;5.05;;;;;;;24.89;68.11;100319.44;5031445;28;20037;-76
2021/07/28 08:01:45;;;;;;;8.82;5.35;;;;;;;24.81;70.24;100319.00;5017378;28;20120;-76
2021/07/28 08:04:11;;;;;;;7.20;4.65;;;;;;;24.48;69.48;100312.53;5029136;28;20041;-76
2021/07/28 08:06:37;;;;;;;10.57;4.95;;;;;;;24.20;70.26;100307.44;5013549;28;20030;-76
2021/07/28 08:09:02;;;;;;;7.55;4.78;;;;;;;24.15;72.42;100315.09;5010687;28;20021;-76
2021/07/28 08:11:28;;;;;;;6.07;4.25;;;;;;;24.22;72.05;100322.25;5011422;28;20032;-76
2021/07/28 08:13:53;;;;;;;7.35;4.57;;;;;;;24.23;73.56;100318.31;5030779;28;20045;-76
2021/07/28 08:16:20;;;;;;;9.73;4.70;;;;;;;24.31;73.30;100322.31;5013404;28;20064;-76
2021/07/28 08:18:47;;;;;;;9.50;4.72;;;;;;;24.18;73.24;100318.88;5021026;28;20490;-76
2021/07/28 08:21:13;;;;;;;8.88;4.70;;;;;;;24.06;71.63;100322.56;5030247;28;20029;-76
2021/07/28 08:23:41;;;;;;;11.00;4.60;;;;;;;24.03;73.59;100324.22;5013104;28;20409;-76
2021/07/28 08:26:08;;;;;;;6.78;4.45;;;;;;;23.67;73.95;100323.28;5009344;28;20513;-76
2021/07/28 08:28:34;;;;;;;9.07;4.32;;;;;;;23.73;73.75;100321.50;5029028;28;20091;-76
2021/07/28 08:30:59;;;;;;;7.35;4.28;;;;;;;23.81;73.63;100322.75;5031017;28;20121;-76
2021/07/28 08:33:27;;;;;;;6.97;4.60;;;;;;;23.87;74.28;100318.16;5025790;28;20525;-76
2021/07/28 08:35:57;;;;;;;10.93;4.85;;;;;;;23.66;73.15;100321.75;5030177;28;20033;-76
2021/07/28 08:38:25;;;;;;;6.20;3.75;;;;;;;23.77;73.09;100320.13;5030967;28;20036;-76
2021/07/28 08:40:58;;;;;;;11.25;5.22;;;;;;;23.71;73.11;100318.41;5015121;28;20068;-76
2021/07/28 08:43:29;;;;;;;8.55;4.30;;;;;;;23.63;74.23;100320.69;5026773;28;20025;-76
2021/07/28 08:46:01;;;;;;;9.52;4.68;;;;;;;23.85;72.95;100326.09;5013455;28;20037;-76
2021/07/28 08:48:29;;;;;;;;;;;;;;;24.11;72.92;100330.19;5030551;28;20394;-76
2021/07/28 08:50:55;;;;;;;7.47;4.03;;;;;;;24.47;72.63;100324.75;5026531;28;19913;-76
2021/07/28 08:53:24;;;;;;;5.50;4.03;;;;;;;24.85;68.89;100321.59;5026171;28;20029;-75
2021/07/28 08:55:54;;;;;;;9.05;4.25;;;;;;;24.86;69.59;100317.59;5011745;28;20041;-75
2021/07/28 08:58:25;;;;;;;9.75;4.32;;;;;;;24.93;68.55;100329.06;5030623;28;20067;-76
2021/07/28 09:00:51;;;;;;;6.13;4.00;;;;;;;25.15;67.83;100328.91;5026565;28;20030;-76
2021/07/28 09:03:17;;;;;;;5.05;4.00;;;;;;;25.11;66.94;100336.56;5028871;28;20029;-76
2021/07/28 09:05:51;;;;;;;6.85;4.45;;;;;;;24.91;67.48;100331.53;5029397;28;20025;-75
2021/07/28 09:08:23;;;;;;;7.20;4.25;;;;;;;25.12;68.09;100329.06;5026480;28;20040;-75
2021/07/28 09:11:01;;;;;;;5.32;4.00;;;;;;;25.01;68.26;100330.28;5028574;28;20049;-75
2021/07/28 09:13:41;;;;;;;7.60;4.60;;;;;;;24.93;65.51;100325.56;5030049;28;20033;-76
2021/07/28 09:16:09;;;;;;;5.10;4.00;;;;;;;24.78;68.02;100330.16;5024495;28;20044;-75
2021/07/28 09:18:35;;;;;;;5.80;4.30;;;;;;;24.60;66.84;100328.13;5014477;28;20029;-75
2021/07/28 09:21:04;;;;;;;6.57;4.50;;;;;;;24.88;68.73;100332.47;5030006;28;20061;-75
2021/07/28 09:23:40;;;;;;;6.88;4.68;;;;;;;24.77;68.11;100331.38;5016349;28;20041;-75
2021/07/28 09:26:32;;;;;;;5.68;4.55;;;;;;;24.45;69.57;100337.47;5021507;28;20033;-75
2021/07/28 09:29:07;;;;;;;8.95;5.20;;;;;;;24.30;70.57;100333.75;5029232;28;20061;-75
2021/07/28 09:31:35;;;;;;;5.60;4.60;;;;;;;24.45;71.22;100331.97;5012713;28;20069;-75
2021/07/28 09:34:29;;;;;;;7.55;4.13;;;;;;;24.92;69.33;100330.31;5033435;28;20032;-75
2021/07/28 09:36:57;;;;;;;7.57;4.90;;;;;;;25.16;68.10;100326.91;5032069;28;20045;-75
2021/07/28 09:39:23;;;;;;;5.60;4.38;;;;;;;25.31;65.93;100322.28;5016320;28;20064;-75
2021/07/28 09:41:48;;;;;;;7.65;4.47;;;;;;;25.43;65.75;100324.91;5016808;28;20120;-75
2021/07/28 09:44:24;;;;;;;6.05;4.00;;;;;;;25.76;65.21;100322.16;5009631;28;20787;-75
2021/07/28 09:47:02;;;;;;;6.93;4.00;;;;;;;25.90;63.69;100321.47;5030234;28;20033;-75
2021/07/28 09:49:27;;;;;;;5.72;4.25;;;;;;;26.16;62.95;100328.13;5034291;28;20038;-75
2021/07/28 09:51:53;;;;;;;5.57;4.03;;;;;;;25.64;64.02;100321.16;5020800;28;20056;-75
2021/07/28 09:54:18;;;;;;;7.70;3.75;;;;;;;25.95;63.83;100315.31;5033211;28;20033;-75
2021/07/28 09:56:51;;;;;;;6.68;3.88;;;;;;;25.82;64.35;100323.06;5033957;28;20118;-75
2021/07/28 09:59:17;;;;;;;7.57;4.47;;;;;;;25.63;63.03;100311.31;5027755;28;20439;-75
2021/07/28 10:01:44;;;;;;;5.25;4.15;;;;;;;25.13;63.29;100308.53;5024900;28;20033;-75
2021/07/28 10:04:14;;;;;;;6.43;3.92;;;;;;;25.33;66.77;100309.56;5033040;28;20034;-75
2021/07/28 10:06:43;;;;;;;6.75;3.90;;;;;;;25.41;65.74;100307.28;5015817;28;20044;-75
2021/07/28 10:09:16;;;;;;;6.20;4.05;;;;;;;25.43;65.53;100313.88;5029014;28;20029;-75
2021/07/28 10:11:50;;;;;;;5.22;3.90;;;;;;;25.55;62.53;100306.63;5003626;28;20029;-75
2021/07/28 10:14:17;;;;;;;7.85;4.18;;;;;;;25.35;62.98;100293.31;5032984;28;20041;-75
2021/07/28 10:16:43;;;;;;;5.75;4.18;;;;;;;25.32;63.15;100308.03;5033261;28;20026;-75
2021/07/28 10:19:09;;;;;;;7.47;3.88;;;;;;;25.40;64.48;100305.72;5026692;28;20466;-75
2021/07/28 10:21:35;;;;;;;5.63;4.43;;;;;;;25.06;63.06;100304.09;5031894;28;20136;-75
2021/07/28 10:24:05;;;;;;;5.03;4.03;;;;;;;25.12;63.37;100307.00;5032685;28;20156;-75
2021/07/28 10:26:39;;;;;;;5.53;3.80;;;;;;;25.83;63.77;100308.78;5030255;28;20132;-75
2021/07/28 10:29:05;;;;;;;4.55;4.10;;;;;;;25.96;60.65;100307.81;5033330;28;20095;-75
2021/07/28 10:31:48;;;;;;;6.57;4.72;;;;;;;25.99;59.24;100307.63;5037372;28;20017;-75
2021/07/28 10:34:20;;;;;;;5.25;4.10;;;;;;;25.94;60.86;100306.28;5032893;28;20111;-74
2021/07/28 10:36:47;;;;;;;4.97;4.43;;;;;;;25.68;61.08;100307.19;5021072;28;20037;-75
2021/07/28 10:39:46;;;;;;;5.43;4.13;;;;;;;25.47;61.11;100308.19;5032914;28;20076;-75
2021/07/28 10:42:19;;;;;;;5.50;4.25;;;;;;;25.61;62.61;100302.75;5033320;28;20370;-75
2021/07/28 10:44:57;;;;;;;5.38;4.22;;;;;;;25.25;60.71;100288.28;5028209;28;20088;-75
2021/07/28 10:47:42;;;;;;;6.20;3.97;;;;;;;25.39;63.02;100301.44;5015160;28;20489;-75
2021/07/28 10:50:25;;;;;;;5.70;4.38;;;;;;;25.33;61.32;100289.50;5032994;28;20032;-75
2021/07/28 10:52:58;;;;;;;6.05;4.70;;;;;;;25.52;60.79;100299.25;5030605;28;20030;-75
2021/07/28 10:55:35;;;;;;;5.10;4.20;;;;;;;25.51;61.42;100295.72;5027855;28;20059;-75
2021/07/28 10:58:07;;;;;;;6.57;4.75;;;;;;;25.43;62.70;100289.03;5033307;28;20076;-75
2021/07/28 11:00:36;;;;;;;12.23;4.97;;;;;;;25.33;63.21;100290.25;5013998;28;20048;-75
2021/07/28 11:03:02;;;;;;;5.60;4.53;;;;;;;25.29;62.98;100283.38;5021842;28;20025;-75
2021/07/28 11:05:30;;;;;;;5.82;4.00;;;;;;;25.01;62.62;100275.16;5031635;28;20164;-75
2021/07/28 11:07:59;;;;;;;5.50;4.55;;;;;;;25.24;63.06;100275.75;5015264;28;20485;-75
2021/07/28 11:10:25;;;;;;;4.55;4.13;;;;;;;25.05;63.60;100273.00;5030243;28;20108;-75
2021/07/28 11:12:51;;;;;;;4.90;3.80;;;;;;;24.85;63.07;100278.25;5031082;28;20440;-75
2021/07/28 11:15:17;;;;;;;5.10;3.70;;;;;;;25.03;62.29;100277.44;5031800;28;20513;-75
2021/07/28 11:17:45;;;;;;;4.25;3.53;;;;;;;25.07;63.88;100272.53;5015006;28;20037;-75
2021/07/28 11:20:32;;;;;;;4.90;3.88;;;;;;;24.96;62.93;100275.03;5027823;28;20046;-75
2021/07/28 11:23:33;;;;;;;8.13;3.50;;;;;;;25.10;62.96;100268.09;5030378;28;20039;-75